createdAt,value
2023-09-12T00:00:47.115Z,19.80
2023-09-12T00:03:14.093Z,19.80
2023-09-12T00:05:41.287Z,19.90
2023-09-12T00:08:08.302Z,19.80
2023-09-12T00:10:35.089Z,19.70
2023-09-12T00:13:03.279Z,19.80
2023-09-12T00:15:30.425Z,19.80
2023-09-12T00:17:57.662Z,19.80
2023-09-12T00:20:24.992Z,19.80
2023-09-12T00:22:51.822Z,19.80
2023-09-12T00:25:18.626Z,19.70
2023-09-12T00:27:45.386Z,19.60
2023-09-12T00:30:12.713Z,19.60
2023-09-12T00:32:39.610Z,19.70
2023-09-12T00:35:06.956Z,19.80
2023-09-12T00:37:33.945Z,19.70
2023-09-12T00:40:00.695Z,19.70
2023-09-12T00:42:27.993Z,19.70
2023-09-12T00:44:54.953Z,19.70
2023-09-12T00:47:22.809Z,19.50
2023-09-12T00:49:56.406Z,19.70
2023-09-12T00:52:29.356Z,19.80
2023-09-12T00:54:56.683Z,19.80
2023-09-12T00:57:24.663Z,19.80
2023-09-12T00:59:52.880Z,19.80
2023-09-12T01:02:20.611Z,19.70
2023-09-12T01:04:48.273Z,19.70
2023-09-12T01:07:15.155Z,19.60
2023-09-12T01:09:42.228Z,19.60
2023-09-12T01:12:09.925Z,19.60
2023-09-12T01:14:36.810Z,19.70
2023-09-12T01:17:03.873Z,19.70
2023-09-12T01:19:30.960Z,19.80
2023-09-12T01:22:19.753Z,19.80
2023-09-12T01:25:14.717Z,19.80
2023-09-12T01:27:50.810Z,19.70
2023-09-12T01:30:26.326Z,19.80
2023-09-12T01:32:54.053Z,19.80
2023-09-12T01:35:21.128Z,19.90
2023-09-12T01:37:48.406Z,19.80
2023-09-12T01:40:17.102Z,19.80
2023-09-12T01:42:49.279Z,19.80
2023-09-12T01:45:21.973Z,19.80
2023-09-12T01:47:51.600Z,19.80
2023-09-12T01:50:20.189Z,19.80
2023-09-12T01:52:48.145Z,19.80
2023-09-12T01:55:16.697Z,19.90
2023-09-12T01:57:43.924Z,19.80
2023-09-12T02:00:12.020Z,19.80
2023-09-12T02:02:38.873Z,19.70
2023-09-12T02:05:18.787Z,19.70
2023-09-12T02:07:46.980Z,19.70
2023-09-12T02:10:14.416Z,19.60
2023-09-12T02:12:41.594Z,19.70
2023-09-12T02:15:09.178Z,19.70
2023-09-12T02:17:36.015Z,19.70
2023-09-12T02:20:05.686Z,19.60
2023-09-12T02:22:32.701Z,19.60
2023-09-12T02:24:59.629Z,19.60
2023-09-12T02:27:26.464Z,19.60
2023-09-12T02:29:54.170Z,19.60
2023-09-12T02:32:20.957Z,19.40
2023-09-12T02:34:47.725Z,19.40
2023-09-12T02:37:14.536Z,19.50
2023-09-12T02:39:41.436Z,19.50
2023-09-12T02:42:08.297Z,19.50
2023-09-12T02:44:35.180Z,19.50
2023-09-12T02:47:04.000Z,19.50
2023-09-12T02:49:32.175Z,19.40
2023-09-12T02:51:59.021Z,19.40
2023-09-12T02:54:25.923Z,19.40
2023-09-12T02:56:52.744Z,19.40
2023-09-12T02:59:20.342Z,19.30
2023-09-12T03:01:47.143Z,19.40
2023-09-12T03:04:14.098Z,19.40
2023-09-12T03:06:41.146Z,19.50
2023-09-12T03:09:08.160Z,19.40
2023-09-12T03:11:34.954Z,19.40
2023-09-12T03:14:01.892Z,19.40
2023-09-12T03:16:28.970Z,19.30
2023-09-12T03:18:55.809Z,19.20
2023-09-12T03:21:22.708Z,19.30
2023-09-12T03:23:49.533Z,19.30
2023-09-12T03:26:16.427Z,19.30
2023-09-12T03:28:44.069Z,19.40
2023-09-12T03:31:13.437Z,19.30
2023-09-12T03:33:42.087Z,19.30
2023-09-12T03:36:10.181Z,19.30
2023-09-12T03:38:37.325Z,19.30
2023-09-12T03:41:04.262Z,19.30
2023-09-12T03:43:31.933Z,19.30
2023-09-12T03:45:58.901Z,19.20
2023-09-12T03:48:25.875Z,19.20
2023-09-12T03:50:53.031Z,19.20
2023-09-12T03:53:19.973Z,19.20
2023-09-12T03:55:46.802Z,19.20
2023-09-12T03:58:13.704Z,19.20
2023-09-12T04:00:40.728Z,19.20
2023-09-12T04:03:07.842Z,19.30
2023-09-12T04:05:34.729Z,19.20
2023-09-12T04:08:01.507Z,19.30
2023-09-12T04:10:28.376Z,19.20
2023-09-12T04:12:55.163Z,19.20
2023-09-12T04:15:22.168Z,19.30
2023-09-12T04:17:49.384Z,19.30
2023-09-12T04:20:16.327Z,19.20
2023-09-12T04:22:44.096Z,19.20
2023-09-12T04:25:11.287Z,19.30
2023-09-12T04:27:38.880Z,19.20
2023-09-12T04:30:07.134Z,19.30
2023-09-12T04:32:34.144Z,19.20
2023-09-12T04:35:01.421Z,19.20
2023-09-12T04:37:28.261Z,19.20
2023-09-12T04:39:55.248Z,19.20
2023-09-12T04:42:23.240Z,19.20
2023-09-12T04:44:50.324Z,19.20
2023-09-12T04:47:17.127Z,19.20
2023-09-12T04:49:44.617Z,19.20
2023-09-12T04:52:11.574Z,19.20
2023-09-12T04:54:38.471Z,19.20
2023-09-12T04:57:05.760Z,19.20
2023-09-12T04:59:32.862Z,19.20
2023-09-12T05:01:59.868Z,19.20
2023-09-12T05:04:26.833Z,19.20
2023-09-12T05:06:54.611Z,19.20
2023-09-12T05:09:21.786Z,19.30
2023-09-12T05:11:48.690Z,19.20
2023-09-12T05:14:15.536Z,19.20
2023-09-12T05:16:42.686Z,19.20
2023-09-12T05:19:09.596Z,19.30
2023-09-12T05:21:36.780Z,19.20
2023-09-12T05:24:04.245Z,19.20
2023-09-12T05:26:31.028Z,19.20
2023-09-12T05:28:57.788Z,19.20
2023-09-12T05:31:25.216Z,19.20
2023-09-12T05:33:52.117Z,19.30
2023-09-12T05:36:18.986Z,19.30
2023-09-12T05:38:46.069Z,19.30
2023-09-12T05:41:13.006Z,19.30
2023-09-12T05:43:40.027Z,19.30
2023-09-12T05:46:07.004Z,19.20
2023-09-12T05:48:34.041Z,19.30
2023-09-12T05:51:00.935Z,19.30
2023-09-12T05:53:27.847Z,19.30
2023-09-12T05:55:55.001Z,19.30
2023-09-12T05:58:22.380Z,19.30
2023-09-12T06:00:49.675Z,19.30
2023-09-12T06:03:17.482Z,19.30
2023-09-12T06:05:46.562Z,19.30
2023-09-12T06:08:13.380Z,19.30
2023-09-12T06:10:40.307Z,19.30
2023-09-12T06:13:07.136Z,19.40
2023-09-12T06:15:34.007Z,19.40
2023-09-12T06:18:00.831Z,19.40
2023-09-12T06:20:27.891Z,19.40
2023-09-12T06:22:54.704Z,19.50
2023-09-12T06:25:21.496Z,19.50
2023-09-12T06:27:48.369Z,19.70
2023-09-12T06:30:15.532Z,19.70
2023-09-12T06:32:42.440Z,19.70
2023-09-12T06:35:11.740Z,19.70
2023-09-12T06:37:40.263Z,19.70
2023-09-12T06:40:08.758Z,19.80
2023-09-12T06:42:35.641Z,19.80
2023-09-12T06:45:02.477Z,19.90
2023-09-12T06:47:29.309Z,20.00
2023-09-12T06:49:56.732Z,19.90
2023-09-12T06:52:23.755Z,19.90
2023-09-12T06:54:50.693Z,20.00
2023-09-12T06:57:17.628Z,20.00
2023-09-12T06:59:44.647Z,20.10
2023-09-12T07:02:13.889Z,20.30
2023-09-12T07:04:40.782Z,20.20
2023-09-12T07:07:07.627Z,20.30
2023-09-12T07:09:34.897Z,20.40
2023-09-12T07:12:01.983Z,20.40
2023-09-12T07:14:28.805Z,20.70
2023-09-12T07:16:55.651Z,20.80
2023-09-12T07:19:22.549Z,20.80
2023-09-12T07:21:49.386Z,20.90
2023-09-12T07:24:16.284Z,20.90
2023-09-12T07:26:43.125Z,21.10
2023-09-12T07:29:10.462Z,21.10
2023-09-12T07:31:37.330Z,20.90
2023-09-12T07:34:06.774Z,20.90
2023-09-12T07:36:35.466Z,20.90
2023-09-12T07:39:02.283Z,21.00
2023-09-12T07:41:29.143Z,21.00
2023-09-12T07:43:55.967Z,21.20
2023-09-12T07:46:22.827Z,21.10
2023-09-12T07:48:49.849Z,21.20
2023-09-12T07:51:19.279Z,21.40
2023-09-12T07:53:46.597Z,21.40
2023-09-12T07:56:13.783Z,21.40
2023-09-12T07:58:40.782Z,21.40
2023-09-12T08:01:09.237Z,21.50
2023-09-12T08:03:37.502Z,21.50
2023-09-12T08:06:04.870Z,21.60
2023-09-12T08:08:31.933Z,22.00
2023-09-12T08:10:58.996Z,22.10
2023-09-12T08:13:30.056Z,22.10
2023-09-12T08:15:57.464Z,22.20
2023-09-12T08:18:32.292Z,22.30
2023-09-12T08:20:59.645Z,22.40
2023-09-12T08:23:26.799Z,22.50
2023-09-12T08:25:53.640Z,22.60
2023-09-12T08:28:20.401Z,22.70
2023-09-12T08:30:47.612Z,22.70
2023-09-12T08:33:14.785Z,22.80
2023-09-12T08:35:41.814Z,22.80
2023-09-12T08:38:09.416Z,22.90
2023-09-12T08:40:36.842Z,22.70
2023-09-12T08:43:07.520Z,22.90
2023-09-12T08:45:34.591Z,23.00
2023-09-12T08:48:02.478Z,23.00
2023-09-12T08:50:34.275Z,23.00
2023-09-12T08:53:07.962Z,23.20
2023-09-12T08:55:37.264Z,23.10
2023-09-12T08:58:06.308Z,23.20
2023-09-12T09:00:33.962Z,23.20
2023-09-12T09:03:01.231Z,23.30
2023-09-12T09:05:30.238Z,23.40
2023-09-12T09:07:58.142Z,23.40
2023-09-12T09:10:38.482Z,23.50
2023-09-12T09:13:14.046Z,23.60
2023-09-12T09:15:43.198Z,23.80
2023-09-12T09:18:13.309Z,23.70
2023-09-12T09:20:42.268Z,23.80
2023-09-12T09:23:11.154Z,23.90
2023-09-12T09:25:42.872Z,23.90
2023-09-12T09:28:22.489Z,24.00
2023-09-12T09:30:52.381Z,23.90
2023-09-12T09:33:20.226Z,23.90
2023-09-12T09:35:48.389Z,24.00
2023-09-12T09:38:19.924Z,24.20
2023-09-12T09:40:46.898Z,24.40
2023-09-12T09:43:16.542Z,24.50
2023-09-12T09:45:47.768Z,24.40
2023-09-12T09:48:22.586Z,24.40
2023-09-12T09:50:50.047Z,24.40
2023-09-12T09:53:16.863Z,24.30
2023-09-12T09:55:44.576Z,24.20
2023-09-12T09:58:17.977Z,24.30
2023-09-12T10:00:45.963Z,24.40
2023-09-12T10:03:16.812Z,24.30
2023-09-12T10:05:45.558Z,24.40
2023-09-12T10:08:18.253Z,24.60
2023-09-12T10:10:46.018Z,24.70
2023-09-12T10:13:15.121Z,24.60
2023-09-12T10:15:44.248Z,24.50
2023-09-12T10:21:11.329Z,24.60
2023-09-12T10:23:46.235Z,24.60
2023-09-12T10:26:15.070Z,24.80
2023-09-12T10:28:44.048Z,24.70
2023-09-12T10:31:13.436Z,24.80
2023-09-12T10:33:40.604Z,25.00
2023-09-12T10:36:10.077Z,24.90
2023-09-12T10:38:45.201Z,25.00
2023-09-12T10:41:16.493Z,25.10
2023-09-12T10:43:50.866Z,24.90
2023-09-12T10:46:18.311Z,24.90
2023-09-12T10:48:45.538Z,25.00
2023-09-12T10:51:14.635Z,25.00
2023-09-12T10:53:49.554Z,25.00
2023-09-12T10:56:21.215Z,25.10
2023-09-12T10:59:07.488Z,25.10
2023-09-12T11:01:42.356Z,25.00
2023-09-12T11:04:24.359Z,25.00
2023-09-12T11:06:51.805Z,25.10
2023-09-12T11:09:23.659Z,25.10
2023-09-12T11:12:06.032Z,25.20
2023-09-12T11:14:33.364Z,25.30
2023-09-12T11:17:09.576Z,25.40
2023-09-12T11:19:53.144Z,25.30
2023-09-12T11:22:32.062Z,25.30
2023-09-12T11:25:04.187Z,25.30
2023-09-12T11:27:51.404Z,25.30
2023-09-12T11:30:23.262Z,25.40
2023-09-12T11:32:52.149Z,25.60
2023-09-12T11:35:27.146Z,25.60
2023-09-12T11:37:59.238Z,25.60
2023-09-12T11:40:35.251Z,25.60
2023-09-12T11:43:02.741Z,25.60
2023-09-12T11:45:30.578Z,25.70
2023-09-12T11:47:57.439Z,25.80
2023-09-12T11:50:32.454Z,25.80
2023-09-12T11:53:07.407Z,25.80
2023-09-12T11:55:38.371Z,25.80
2023-09-12T11:58:05.397Z,25.80
2023-09-12T12:00:33.365Z,25.90
2023-09-12T12:03:00.467Z,25.80
2023-09-12T12:05:27.526Z,25.80
2023-09-12T12:07:59.694Z,25.80
2023-09-12T12:10:33.878Z,26.00
2023-09-12T12:13:00.710Z,25.90
2023-09-12T12:15:30.545Z,25.90
2023-09-12T12:17:57.871Z,25.90
2023-09-12T12:20:25.022Z,25.90
2023-09-12T12:22:54.613Z,26.10
2023-09-12T12:25:21.379Z,26.20
2023-09-12T12:27:48.239Z,26.20
2023-09-12T12:30:15.697Z,26.20
2023-09-12T12:32:44.028Z,26.10
2023-09-12T12:35:46.209Z,26.10
2023-09-12T12:38:07.769Z,26.10
2023-09-12T12:40:46.153Z,26.10
2023-09-12T12:43:20.590Z,26.10
2023-09-12T12:45:58.663Z,26.20
2023-09-12T12:48:33.531Z,26.10
2023-09-12T12:51:01.202Z,26.10
2023-09-12T12:53:53.166Z,26.20
2023-09-12T12:56:30.005Z,26.30
2023-09-12T12:59:07.590Z,26.50
2023-09-12T13:01:38.846Z,26.50
2023-09-12T13:04:09.851Z,26.80
2023-09-12T13:06:37.543Z,26.80
2023-09-12T13:09:06.556Z,26.80
2023-09-12T13:11:36.722Z,26.80
2023-09-12T13:14:10.098Z,26.90
2023-09-12T13:16:37.224Z,26.90
2023-09-12T13:19:05.134Z,27.00
2023-09-12T13:21:33.892Z,26.90
2023-09-12T13:24:02.716Z,26.90
2023-09-12T13:26:30.337Z,26.70
2023-09-12T13:28:57.723Z,26.90
2023-09-12T13:31:24.588Z,27.10
2023-09-12T13:33:51.401Z,27.20
2023-09-12T13:36:18.205Z,27.30
2023-09-12T13:38:45.261Z,27.30
2023-09-12T13:41:12.228Z,27.30
2023-09-12T13:43:39.198Z,27.40
2023-09-12T13:46:06.182Z,27.40
2023-09-12T13:48:33.072Z,27.40
2023-09-12T13:50:59.832Z,27.40
2023-09-12T13:53:26.707Z,27.50
2023-09-12T13:56:02.150Z,27.50
2023-09-12T13:58:45.393Z,27.50
2023-09-12T14:01:19.353Z,27.60
2023-09-12T14:03:49.599Z,27.70
2023-09-12T14:06:17.305Z,27.70
2023-09-12T14:08:44.336Z,27.90
2023-09-12T14:11:21.652Z,28.10
2023-09-12T14:14:03.185Z,28.00
2023-09-12T14:16:37.916Z,28.10
2023-09-12T14:19:06.874Z,28.40
2023-09-12T14:21:35.725Z,28.50
2023-09-12T14:24:03.308Z,28.60
2023-09-12T14:26:30.447Z,28.40
2023-09-12T14:28:57.520Z,28.10
2023-09-12T14:31:24.451Z,27.70
2023-09-12T14:33:53.436Z,27.70
2023-09-12T14:36:20.664Z,27.70
2023-09-12T14:38:47.486Z,27.70
2023-09-12T14:41:15.170Z,27.70
2023-09-12T14:43:42.279Z,27.50
2023-09-12T14:46:09.879Z,27.70
2023-09-12T14:48:38.673Z,27.70
2023-09-12T14:51:06.597Z,27.70
2023-09-12T14:53:33.491Z,27.60
2023-09-12T14:56:00.292Z,27.40
2023-09-12T14:58:27.137Z,27.40
2023-09-12T15:00:53.975Z,27.30
2023-09-12T15:03:20.919Z,27.20
2023-09-12T15:05:47.737Z,27.10
2023-09-12T15:08:14.557Z,27.00
2023-09-12T15:10:41.368Z,27.00
2023-09-12T15:13:08.223Z,26.80
2023-09-12T15:15:35.232Z,26.70
2023-09-12T15:18:02.643Z,26.60
2023-09-12T15:20:29.812Z,26.40
2023-09-12T15:22:56.599Z,26.40
2023-09-12T15:25:23.576Z,26.20
2023-09-12T15:27:50.448Z,26.00
2023-09-12T15:30:17.379Z,25.90
2023-09-12T15:32:44.213Z,25.90
2023-09-12T15:35:12.002Z,25.80
2023-09-12T15:37:38.941Z,25.80
2023-09-12T15:40:06.522Z,25.70
2023-09-12T15:42:37.668Z,25.70
2023-09-12T15:45:06.279Z,25.60
2023-09-12T15:47:33.545Z,25.60
2023-09-12T15:50:00.652Z,25.50
2023-09-12T15:52:27.580Z,25.40
2023-09-12T15:54:55.368Z,25.40
2023-09-12T15:57:22.528Z,25.30
2023-09-12T15:59:49.678Z,25.20
2023-09-12T16:02:17.971Z,25.10
2023-09-12T16:04:45.057Z,25.10
2023-09-12T16:07:11.950Z,25.00
2023-09-12T16:09:38.792Z,25.00
2023-09-12T16:12:06.037Z,24.90
2023-09-12T16:14:32.999Z,24.90
2023-09-12T16:17:02.712Z,24.80
2023-09-12T16:19:29.669Z,24.80
2023-09-12T16:21:57.048Z,24.70
2023-09-12T16:24:24.224Z,24.70
2023-09-12T16:26:51.300Z,24.60
2023-09-12T16:29:18.331Z,24.60
2023-09-12T16:31:45.708Z,24.60
2023-09-12T16:34:12.825Z,24.60
2023-09-12T16:36:40.027Z,24.50
2023-09-12T16:39:06.821Z,24.50
2023-09-12T16:41:34.384Z,24.40
2023-09-12T16:44:01.496Z,24.40
2023-09-12T16:46:28.434Z,24.40
2023-09-12T16:48:55.688Z,24.40
2023-09-12T16:51:22.813Z,24.30
2023-09-12T16:53:51.935Z,24.30
2023-09-12T16:56:18.990Z,24.30
2023-09-12T16:58:45.830Z,24.30
2023-09-12T17:01:12.736Z,24.30
2023-09-12T17:03:43.481Z,24.30
2023-09-12T17:06:10.593Z,24.30
2023-09-12T17:08:37.515Z,24.30
2023-09-12T17:11:04.278Z,24.30
2023-09-12T17:13:31.123Z,24.40
2023-09-12T17:15:58.214Z,24.60
2023-09-12T17:18:25.200Z,24.70
2023-09-12T17:20:52.091Z,24.70
2023-09-12T17:23:18.893Z,24.80
2023-09-12T17:25:45.667Z,24.80
2023-09-12T17:28:12.517Z,24.70
2023-09-12T17:30:39.420Z,24.80
2023-09-12T17:33:06.367Z,24.90
2023-09-12T17:35:33.201Z,24.90
2023-09-12T17:37:59.971Z,24.80
2023-09-12T17:40:26.792Z,24.80
2023-09-12T17:42:53.626Z,24.70
2023-09-12T17:45:20.394Z,24.70
2023-09-12T17:47:47.249Z,24.80
2023-09-12T17:50:14.064Z,24.80
2023-09-12T17:52:40.834Z,24.80
2023-09-12T17:55:09.119Z,24.80
2023-09-12T17:57:36.091Z,24.80
2023-09-12T18:00:04.093Z,24.70
2023-09-12T18:02:38.722Z,24.70
2023-09-12T18:05:05.774Z,24.60
2023-09-12T18:07:32.590Z,24.60
2023-09-12T18:09:59.480Z,24.60
2023-09-12T18:12:27.944Z,24.60
2023-09-12T18:14:54.944Z,24.60
2023-09-12T18:17:22.068Z,24.50
2023-09-12T18:19:48.873Z,24.50
2023-09-12T18:22:15.713Z,24.50
2023-09-12T18:24:42.575Z,24.40
2023-09-12T18:27:09.602Z,24.40
2023-09-12T18:29:36.401Z,24.40
2023-09-12T18:32:03.841Z,24.40
2023-09-12T18:34:30.666Z,24.30
2023-09-12T18:36:58.639Z,24.20
2023-09-12T18:39:25.524Z,24.00
2023-09-12T18:41:52.321Z,23.90
2023-09-12T18:44:19.154Z,23.80
2023-09-12T18:46:46.102Z,23.80
2023-09-12T18:49:13.207Z,23.80
2023-09-12T18:51:41.209Z,23.70
2023-09-12T18:54:08.105Z,23.60
2023-09-12T18:56:34.877Z,23.80
2023-09-12T18:59:01.992Z,23.80
2023-09-12T19:01:28.918Z,24.00
2023-09-12T19:03:56.069Z,24.00
2023-09-12T19:06:23.057Z,23.80
2023-09-12T19:08:49.874Z,23.80
2023-09-12T19:11:18.083Z,23.80
2023-09-12T19:13:45.302Z,23.60
2023-09-12T19:16:12.925Z,23.50
2023-09-12T19:18:40.040Z,23.40
2023-09-12T19:21:06.916Z,23.40
2023-09-12T19:23:33.724Z,23.50
2023-09-12T19:26:00.513Z,23.50
2023-09-12T19:28:27.279Z,23.40
2023-09-12T19:30:54.258Z,23.20
2023-09-12T19:33:21.172Z,23.20
2023-09-12T19:35:47.971Z,23.00
2023-09-12T19:38:15.820Z,23.00
2023-09-12T19:40:42.675Z,23.20
2023-09-12T19:43:11.207Z,23.30
2023-09-12T19:45:39.570Z,23.10
2023-09-12T19:48:11.561Z,23.10
2023-09-12T19:50:39.001Z,23.00
2023-09-12T19:53:06.893Z,22.90
2023-09-12T19:55:34.385Z,22.80
2023-09-12T19:58:01.387Z,22.80
2023-09-12T20:00:28.990Z,22.70
2023-09-12T20:02:56.250Z,22.90
2023-09-12T20:05:23.262Z,22.80
2023-09-12T20:07:51.540Z,22.70
2023-09-12T20:10:21.470Z,22.70
2023-09-12T20:12:50.144Z,22.70
2023-09-12T20:15:17.170Z,22.70
2023-09-12T20:17:48.207Z,22.60
2023-09-12T20:20:16.609Z,22.50
2023-09-12T20:22:43.412Z,22.40
2023-09-12T20:25:10.600Z,22.40
2023-09-12T20:27:37.647Z,22.30
2023-09-12T20:30:04.990Z,22.30
2023-09-12T20:32:43.737Z,22.20
2023-09-12T20:35:15.618Z,22.20
2023-09-12T20:37:42.475Z,22.10
2023-09-12T20:40:10.041Z,22.10
2023-09-12T20:42:39.355Z,22.10
2023-09-12T20:45:07.036Z,22.00
2023-09-12T20:47:34.005Z,22.00
2023-09-12T20:50:02.486Z,22.00
2023-09-12T20:52:29.327Z,22.00
2023-09-12T20:54:56.293Z,21.90
2023-09-12T20:57:23.342Z,21.90
2023-09-12T20:59:50.118Z,21.90
2023-09-12T21:02:16.962Z,21.90
2023-09-12T21:04:43.900Z,21.90
2023-09-12T21:07:10.797Z,21.80
2023-09-12T21:09:38.011Z,21.90
2023-09-12T21:12:05.788Z,21.90
2023-09-12T21:14:32.770Z,21.80
2023-09-12T21:16:59.695Z,21.80
2023-09-12T21:19:26.550Z,21.70
2023-09-12T21:21:53.433Z,21.80
2023-09-12T21:24:22.062Z,21.70
2023-09-12T21:26:48.840Z,21.80
2023-09-12T21:29:15.669Z,22.00
2023-09-12T21:31:42.618Z,22.00
2023-09-12T21:34:09.563Z,22.20
2023-09-12T21:36:36.417Z,22.10
2023-09-12T21:39:04.605Z,22.00
2023-09-12T21:41:31.506Z,21.80
2023-09-12T21:43:58.285Z,21.70
2023-09-12T21:46:25.252Z,21.80
2023-09-12T21:48:52.157Z,21.80
2023-09-12T21:51:19.030Z,21.70
2023-09-12T21:53:46.425Z,21.60
2023-09-12T21:56:13.350Z,21.50
2023-09-12T21:58:40.154Z,21.50
2023-09-12T22:01:07.448Z,21.40
2023-09-12T22:03:36.875Z,21.40
2023-09-12T22:06:07.739Z,21.30
2023-09-12T22:08:34.553Z,21.20
2023-09-12T22:11:01.333Z,21.20
2023-09-12T22:13:29.005Z,21.20
2023-09-12T22:15:55.952Z,21.10
2023-09-12T22:18:25.421Z,21.10
2023-09-12T22:20:52.422Z,21.10
2023-09-12T22:23:19.764Z,21.10
2023-09-12T22:25:46.541Z,21.10
2023-09-12T22:28:14.533Z,21.20
2023-09-12T22:30:42.117Z,21.10
2023-09-12T22:33:10.393Z,21.10
2023-09-12T22:35:37.218Z,21.00
2023-09-12T22:38:04.144Z,21.00
2023-09-12T22:40:30.956Z,21.00
2023-09-12T22:42:57.771Z,21.00
2023-09-12T22:45:24.801Z,20.90
2023-09-12T22:47:51.688Z,20.90
2023-09-12T22:50:18.629Z,20.90
2023-09-12T22:52:45.453Z,20.80
2023-09-12T22:55:12.321Z,20.80
2023-09-12T22:57:39.263Z,20.80
2023-09-12T23:00:08.630Z,20.80
2023-09-12T23:02:35.484Z,20.90
2023-09-12T23:05:02.399Z,20.80
2023-09-12T23:07:29.260Z,20.80
2023-09-12T23:09:56.134Z,20.80
2023-09-12T23:12:23.034Z,20.90
2023-09-12T23:14:55.045Z,20.80
2023-09-12T23:17:23.090Z,20.80
2023-09-12T23:19:49.979Z,20.70
2023-09-12T23:22:16.770Z,20.70
2023-09-12T23:24:43.590Z,20.70
2023-09-12T23:27:10.437Z,20.70
2023-09-12T23:29:37.262Z,20.70
2023-09-12T23:32:04.576Z,20.70
2023-09-12T23:34:31.567Z,20.70
2023-09-12T23:36:58.436Z,20.80
2023-09-12T23:39:25.337Z,20.70
2023-09-12T23:41:54.295Z,20.80
2023-09-12T23:44:21.182Z,20.60
2023-09-12T23:46:48.435Z,20.80
2023-09-12T23:49:15.291Z,20.70
2023-09-12T23:51:43.055Z,20.70
2023-09-12T23:54:11.481Z,20.70
2023-09-12T23:56:40.874Z,20.60
2023-09-12T23:59:10.417Z,20.70
